This is the latest recevied weather packets stored in our database for station/object KG7MRB. If no packets are shown the sender has not sent any weather packets the latest 10 day(s).
| Time | Temp. | Humidity | Pressure | Rain* | Wind** | Luminosity | Snow |
|---|---|---|---|---|---|---|---|
| 1777740971 | 18.33° C | 68% | 1035.7 hPa | 0 mm | - | 444 W/m² | - |
| 1777740668 | 16.67° C | 72% | 1035.9 hPa | 0 mm | - | 451 W/m² | - |
| 1777740364 | 17.22° C | 71% | 1036 hPa | 0 mm | - | 146 W/m² | - |
| 1777740061 | 17.22° C | 70% | 1036 hPa | 0 mm | - | 471 W/m² | - |
| 1777739756 | 16.67° C | 70% | 1036.1 hPa | 0 mm | - | 319 W/m² | - |
| 1777739454 | 16.67° C | 71% | 1036.2 hPa | 0 mm | - | 435 W/m² | - |
| 1777739150 | 16.67° C | 73% | 1036.2 hPa | 0 mm | - | 237 W/m² | - |
| 1777738848 | 16.67° C | 76% | 1036.3 hPa | 0 mm | - | 393 W/m² | - |
| 1777738544 | 16.11° C | 76% | 1036.2 hPa | 0 mm | - | 372 W/m² | - |
| 1777738242 | 15.56° C | 80% | 1036.5 hPa | 0 mm | - | 359 W/m² | - |
| 1777737940 | 15° C | 85% | 1036.4 hPa | 0 mm | - | 349 W/m² | - |
| 1777737638 | 14.44° C | 85% | 1036.2 hPa | 0 mm | - | 287 W/m² | - |
| 1777737337 | 13.33° C | 89% | 1036.5 hPa | 0 mm | - | 326 W/m² | - |
| 1777737033 | 12.78° C | 90% | 1036.5 hPa | 0 mm | - | 294 W/m² | - |
| 1777736728 | 12.78° C | 91% | 1036.4 hPa | 0 mm | - | 118 W/m² | - |
| 1777736101 | 12.78° C | 90% | 1036.6 hPa | 0 mm | - | 112 W/m² | - |
| 1777735798 | 13.33° C | 91% | 1036.5 hPa | 0 mm | - | 113 W/m² | - |
| 1777735495 | 13.33° C | 91% | 1036.3 hPa | 0 mm | - | 251 W/m² | - |
| 1777735193 | 12.78° C | 91% | 1036.5 hPa | 0 mm | - | 300 W/m² | - |
| 1777734889 | 11.67° C | 93% | 1036.5 hPa | 0 mm | - | 301 W/m² | - |
| 1777734587 | 10.56° C | 98% | 1036.5 hPa | 0 mm | - | 186 W/m² | - |
| 1777734284 | 10° C | 98% | 1036.3 hPa | 0 mm | - | 100 W/m² | - |
| 1777733980 | 10° C | 99% | 1036.4 hPa | 0 mm | - | 87 W/m² | - |
| 1777733677 | 10° C | 99% | 1036.3 hPa | 0 mm | - | 85 W/m² | - |
| 1777733373 | 9.44° C | 99% | 1036.3 hPa | 0 mm | - | 85 W/m² | - |
* Rain latest hour (hover to see other rain measurements)
** Current wind speed in m/s (hover to see current wind gust speed)